sensor_id;sensor_type;location;lat;lon;timestamp;pressure;altitude;pressure_sealevel;temperature
19568;BMP280;9930;49.240;8.548;2023-04-16T00:01:13;100549.72;;;14.19
19568;BMP280;9930;49.240;8.548;2023-04-16T00:03:39;100529.88;;;14.12
19568;BMP280;9930;49.240;8.548;2023-04-16T00:06:05;100544.59;;;14.19
19568;BMP280;9930;49.240;8.548;2023-04-16T00:08:33;100542.88;;;14.18
19568;BMP280;9930;49.240;8.548;2023-04-16T00:11:00;100545.34;;;14.15
19568;BMP280;9930;49.240;8.548;2023-04-16T00:13:30;100535.78;;;14.08
19568;BMP280;9930;49.240;8.548;2023-04-16T00:15:57;100523.69;;;14.04
19568;BMP280;9930;49.240;8.548;2023-04-16T00:18:27;100539.25;;;14.10
19568;BMP280;9930;49.240;8.548;2023-04-16T00:20:53;100542.59;;;14.08
19568;BMP280;9930;49.240;8.548;2023-04-16T00:23:19;100547.72;;;14.08
19568;BMP280;9930;49.240;8.548;2023-04-16T00:25:49;100542.59;;;14.08
19568;BMP280;9930;49.240;8.548;2023-04-16T00:28:15;100546.00;;;14.07
19568;BMP280;9930;49.240;8.548;2023-04-16T00:30:43;100533.06;;;14.02
19568;BMP280;9930;49.240;8.548;2023-04-16T00:33:09;100533.75;;;13.97
19568;BMP280;9930;49.240;8.548;2023-04-16T00:35:39;100529.50;;;13.97
19568;BMP280;9930;49.240;8.548;2023-04-16T00:38:04;100538.09;;;13.99
19568;BMP280;9930;49.240;8.548;2023-04-16T00:40:32;100551.88;;;14.03
19568;BMP280;9930;49.240;8.548;2023-04-16T00:43:03;100542.44;;;14.02
19568;BMP280;9930;49.240;8.548;2023-04-16T00:45:29;100529.44;;;13.94
19568;BMP280;9930;49.240;8.548;2023-04-16T00:47:58;100526.91;;;13.96
19568;BMP280;9930;49.240;8.548;2023-04-16T00:50:26;100534.72;;;14.00
19568;BMP280;9930;49.240;8.548;2023-04-16T00:52:59;100546.75;;;14.03
19568;BMP280;9930;49.240;8.548;2023-04-16T00:55:28;100543.28;;;14.01
19568;BMP280;9930;49.240;8.548;2023-04-16T00:57:59;100531.94;;;13.92
19568;BMP280;9930;49.240;8.548;2023-04-16T01:00:30;100528.34;;;13.86
19568;BMP280;9930;49.240;8.548;2023-04-16T01:02:58;100550.88;;;13.98
19568;BMP280;9930;49.240;8.548;2023-04-16T01:05:27;100549.03;;;13.92
19568;BMP280;9930;49.240;8.548;2023-04-16T01:07:58;100538.66;;;13.87
19568;BMP280;9930;49.240;8.548;2023-04-16T01:10:27;100559.31;;;13.93
19568;BMP280;9930;49.240;8.548;2023-04-16T01:12:53;100559.28;;;13.92
19568;BMP280;9930;49.240;8.548;2023-04-16T01:15:18;100555.78;;;13.88
19568;BMP280;9930;49.240;8.548;2023-04-16T01:17:49;100555.84;;;13.91
19568;BMP280;9930;49.240;8.548;2023-04-16T01:20:15;100536.84;;;13.83
19568;BMP280;9930;49.240;8.548;2023-04-16T01:22:40;100558.41;;;13.91
19568;BMP280;9930;49.240;8.548;2023-04-16T01:25:07;100547.97;;;13.84
19568;BMP280;9930;49.240;8.548;2023-04-16T01:27:35;100544.44;;;13.80
19568;BMP280;9930;49.240;8.548;2023-04-16T01:30:02;100553.97;;;13.84
19568;BMP280;9930;49.240;8.548;2023-04-16T01:32:31;100554.78;;;13.83
19568;BMP280;9930;49.240;8.548;2023-04-16T01:35:00;100554.81;;;13.85
19568;BMP280;9930;49.240;8.548;2023-04-16T01:37:26;100562.47;;;13.83
19568;BMP280;9930;49.240;8.548;2023-04-16T01:39:54;100552.88;;;13.76
19568;BMP280;9930;49.240;8.548;2023-04-16T01:42:22;100571.84;;;13.83
19568;BMP280;9930;49.240;8.548;2023-04-16T01:44:52;100571.81;;;13.81
19568;BMP280;9930;49.240;8.548;2023-04-16T01:47:20;100570.13;;;13.82
19568;BMP280;9930;49.240;8.548;2023-04-16T01:49:48;100568.38;;;13.81
19568;BMP280;9930;49.240;8.548;2023-04-16T01:52:16;100579.44;;;13.78
19568;BMP280;9930;49.240;8.548;2023-04-16T01:54:42;100566.44;;;13.72
19568;BMP280;9930;49.240;8.548;2023-04-16T01:57:08;100574.19;;;13.74
19568;BMP280;9930;49.240;8.548;2023-04-16T01:59:36;100581.16;;;13.79
19568;BMP280;9930;49.240;8.548;2023-04-16T02:02:13;100586.38;;;13.82
19568;BMP280;9930;49.240;8.548;2023-04-16T02:04:43;100581.16;;;13.79
19568;BMP280;9930;49.240;8.548;2023-04-16T02:07:10;100579.44;;;13.78
19568;BMP280;9930;49.240;8.548;2023-04-16T02:09:40;100560.44;;;13.72
19568;BMP280;9930;49.240;8.548;2023-04-16T02:12:07;100584.59;;;13.80
19568;BMP280;9930;49.240;8.548;2023-04-16T02:14:39;100578.66;;;13.81
19568;BMP280;9930;49.240;8.548;2023-04-16T02:17:04;100570.09;;;13.80
19568;BMP280;9930;49.240;8.548;2023-04-16T02:19:33;100563.97;;;13.75
19568;BMP280;9930;49.240;8.548;2023-04-16T02:22:02;100557.88;;;13.72
19568;BMP280;9930;49.240;8.548;2023-04-16T02:24:30;100563.91;;;13.74
19568;BMP280;9930;49.240;8.548;2023-04-16T02:26:59;100577.78;;;13.80
19568;BMP280;9930;49.240;8.548;2023-04-16T02:29:28;100574.31;;;13.78
19568;BMP280;9930;49.240;8.548;2023-04-16T02:31:53;100574.22;;;13.75
19568;BMP280;9930;49.240;8.548;2023-04-16T02:34:21;100562.97;;;13.70
19568;BMP280;9930;49.240;8.548;2023-04-16T02:36:47;100574.31;;;13.78
19568;BMP280;9930;49.240;8.548;2023-04-16T02:39:15;100586.25;;;13.78
19568;BMP280;9930;49.240;8.548;2023-04-16T02:41:41;100572.41;;;13.71
19568;BMP280;9930;49.240;8.548;2023-04-16T02:44:06;100588.00;;;13.79
19568;BMP280;9930;49.240;8.548;2023-04-16T02:46:37;100585.44;;;13.79
19568;BMP280;9930;49.240;8.548;2023-04-16T02:49:05;100588.03;;;13.80
19568;BMP280;9930;49.240;8.548;2023-04-16T02:51:30;100589.72;;;13.80
19568;BMP280;9930;49.240;8.548;2023-04-16T02:54:02;100587.06;;;13.77
19568;BMP280;9930;49.240;8.548;2023-04-16T02:56:27;100588.78;;;13.76
19568;BMP280;9930;49.240;8.548;2023-04-16T02:58:56;100575.75;;;13.69
19568;BMP280;9930;49.240;8.548;2023-04-16T03:01:21;100577.44;;;13.68
19568;BMP280;9930;49.240;8.548;2023-04-16T03:03:48;100575.75;;;13.69
19568;BMP280;9930;49.240;8.548;2023-04-16T03:06:14;100589.59;;;13.75
19568;BMP280;9930;49.240;8.548;2023-04-16T03:08:44;100581.75;;;13.69
19568;BMP280;9930;49.240;8.548;2023-04-16T03:11:14;100581.81;;;13.72
19568;BMP280;9930;49.240;8.548;2023-04-16T03:13:40;100583.56;;;13.73
19568;BMP280;9930;49.240;8.548;2023-04-16T03:16:08;100598.25;;;13.79
19568;BMP280;9930;49.240;8.548;2023-04-16T03:18:33;100594.72;;;13.75
19568;BMP280;9930;49.240;8.548;2023-04-16T03:21:04;100586.13;;;13.73
19568;BMP280;9930;49.240;8.548;2023-04-16T03:23:32;100605.06;;;13.78
19568;BMP280;9930;49.240;8.548;2023-04-16T03:26:02;100610.16;;;13.77
19568;BMP280;9930;49.240;8.548;2023-04-16T03:28:28;100585.13;;;13.68
19568;BMP280;9930;49.240;8.548;2023-04-16T03:30:53;100586.81;;;13.68
19568;BMP280;9930;49.240;8.548;2023-04-16T03:33:22;100594.50;;;13.68
19568;BMP280;9930;49.240;8.548;2023-04-16T03:35:57;100596.16;;;13.66
19568;BMP280;9930;49.240;8.548;2023-04-16T03:38:24;100609.06;;;13.69
19568;BMP280;9930;49.240;8.548;2023-04-16T03:40:56;100596.06;;;13.63
19568;BMP280;9930;49.240;8.548;2023-04-16T03:43:37;100613.41;;;13.71
19568;BMP280;9930;49.240;8.548;2023-04-16T03:46:03;100601.19;;;13.63
19568;BMP280;9930;49.240;8.548;2023-04-16T03:48:30;100614.22;;;13.70
19568;BMP280;9930;49.240;8.548;2023-04-16T03:51:01;100598.66;;;13.63
19568;BMP280;9930;49.240;8.548;2023-04-16T03:53:29;100602.91;;;13.62
19568;BMP280;9930;49.240;8.548;2023-04-16T03:55:58;100617.53;;;13.66
19568;BMP280;9930;49.240;8.548;2023-04-16T03:58:29;100616.63;;;13.64
19568;BMP280;9930;49.240;8.548;2023-04-16T04:01:02;100614.06;;;13.64
19568;BMP280;9930;49.240;8.548;2023-04-16T04:03:33;100611.38;;;13.59
19568;BMP280;9930;49.240;8.548;2023-04-16T04:05:59;100622.56;;;13.63
19568;BMP280;9930;49.240;8.548;2023-04-16T04:08:24;100619.97;;;13.61
19568;BMP280;9930;49.240;8.548;2023-04-16T04:10:55;100614.72;;;13.57
19568;BMP280;9930;49.240;8.548;2023-04-16T04:13:20;100607.75;;;13.53
19568;BMP280;9930;49.240;8.548;2023-04-16T04:15:48;100629.22;;;13.56
19568;BMP280;9930;49.240;8.548;2023-04-16T04:18:14;100620.72;;;13.57
19568;BMP280;9930;49.240;8.548;2023-04-16T04:20:40;100602.56;;;13.50
19568;BMP280;9930;49.240;8.548;2023-04-16T04:23:08;100624.97;;;13.57
19568;BMP280;9930;49.240;8.548;2023-04-16T04:25:34;100607.66;;;13.50
19568;BMP280;9930;49.240;8.548;2023-04-16T04:28:04;100631.91;;;13.61
19568;BMP280;9930;49.240;8.548;2023-04-16T04:30:32;100635.31;;;13.60
19568;BMP280;9930;49.240;8.548;2023-04-16T04:33:00;100639.59;;;13.61
19568;BMP280;9930;49.240;8.548;2023-04-16T04:35:29;100624.88;;;13.54
19568;BMP280;9930;49.240;8.548;2023-04-16T04:38:00;100630.19;;;13.60
19568;BMP280;9930;49.240;8.548;2023-04-16T04:40:30;100642.16;;;13.61
19568;BMP280;9930;49.240;8.548;2023-04-16T04:43:00;100638.00;;;13.65
19568;BMP280;9930;49.240;8.548;2023-04-16T04:45:28;100641.44;;;13.65
19568;BMP280;9930;49.240;8.548;2023-04-16T04:47:59;100637.09;;;13.63
19568;BMP280;9930;49.240;8.548;2023-04-16T04:50:26;100648.28;;;13.66
19568;BMP280;9930;49.240;8.548;2023-04-16T04:52:52;100652.59;;;13.67
19568;BMP280;9930;49.240;8.548;2023-04-16T04:55:17;100656.91;;;13.68
19568;BMP280;9930;49.240;8.548;2023-04-16T04:57:43;100647.28;;;13.61
19568;BMP280;9930;49.240;8.548;2023-04-16T05:00:11;100649.94;;;13.64
19568;BMP280;9930;49.240;8.548;2023-04-16T05:02:37;100652.47;;;13.63
19568;BMP280;9930;49.240;8.548;2023-04-16T05:05:05;100655.03;;;13.63
19568;BMP280;9930;49.240;8.548;2023-04-16T05:07:31;100652.41;;;13.61
19568;BMP280;9930;49.240;8.548;2023-04-16T05:09:58;100668.84;;;13.68
19568;BMP280;9930;49.240;8.548;2023-04-16T05:12:28;100672.28;;;13.68
19568;BMP280;9930;49.240;8.548;2023-04-16T05:14:56;100667.19;;;13.70
19568;BMP280;9930;49.240;8.548;2023-04-16T05:17:24;100664.44;;;13.64
19568;BMP280;9930;49.240;8.548;2023-04-16T05:19:53;100676.59;;;13.69
19568;BMP280;9930;49.240;8.548;2023-04-16T05:22:21;100676.63;;;13.71
19568;BMP280;9930;49.240;8.548;2023-04-16T05:24:47;100666.16;;;13.63
19568;BMP280;9930;49.240;8.548;2023-04-16T05:27:12;100675.72;;;13.69
19568;BMP280;9930;49.240;8.548;2023-04-16T05:29:40;100673.97;;;13.68
19568;BMP280;9930;49.240;8.548;2023-04-16T05:32:06;100693.06;;;13.77
19568;BMP280;9930;49.240;8.548;2023-04-16T05:34:34;100681.09;;;13.78
19568;BMP280;9930;49.240;8.548;2023-04-16T05:36:59;100693.97;;;13.79
19568;BMP280;9930;49.240;8.548;2023-04-16T05:39:26;100680.97;;;13.73
19568;BMP280;9930;49.240;8.548;2023-04-16T05:41:52;100673.19;;;13.70
19568;BMP280;9930;49.240;8.548;2023-04-16T05:44:20;100680.09;;;13.73
19568;BMP280;9930;49.240;8.548;2023-04-16T05:46:45;100686.13;;;13.75
19568;BMP280;9930;49.240;8.548;2023-04-16T05:49:11;100687.88;;;13.76
19568;BMP280;9930;49.240;8.548;2023-04-16T05:51:37;100692.22;;;13.78
19568;BMP280;9930;49.240;8.548;2023-04-16T05:54:07;100710.47;;;13.89
19568;BMP280;9930;49.240;8.548;2023-04-16T05:56:33;100711.41;;;13.91
19568;BMP280;9930;49.240;8.548;2023-04-16T05:59:01;100704.56;;;13.91
19568;BMP280;9930;49.240;8.548;2023-04-16T06:01:31;100703.69;;;13.91
19568;BMP280;9930;49.240;8.548;2023-04-16T06:03:57;100699.34;;;13.88
19568;BMP280;9930;49.240;8.548;2023-04-16T06:06:27;100714.13;;;13.97
19568;BMP280;9930;49.240;8.548;2023-04-16T06:08:52;100715.88;;;13.98
19568;BMP280;9930;49.240;8.548;2023-04-16T06:11:18;100715.91;;;14.00
19568;BMP280;9930;49.240;8.548;2023-04-16T06:13:48;100715.84;;;13.97
19568;BMP280;9930;49.240;8.548;2023-04-16T06:16:14;100706.41;;;13.96
19568;BMP280;9930;49.240;8.548;2023-04-16T06:18:40;100721.22;;;14.06
19568;BMP280;9930;49.240;8.548;2023-04-16T06:21:05;100699.56;;;13.96
19568;BMP280;9930;49.240;8.548;2023-04-16T06:23:31;100725.63;;;14.10
19568;BMP280;9930;49.240;8.548;2023-04-16T06:26:00;100721.34;;;14.10
19568;BMP280;9930;49.240;8.548;2023-04-16T06:28:27;100728.25;;;14.13
19568;BMP280;9930;49.240;8.548;2023-04-16T06:30:53;100717.97;;;14.11
19568;BMP280;9930;49.240;8.548;2023-04-16T06:33:19;100722.13;;;14.08
19568;BMP280;9930;49.240;8.548;2023-04-16T06:35:47;100727.34;;;14.11
19568;BMP280;9930;49.240;8.548;2023-04-16T06:38:13;100736.91;;;14.16
19568;BMP280;9930;49.240;8.548;2023-04-16T06:40:39;100734.44;;;14.19
19568;BMP280;9930;49.240;8.548;2023-04-16T06:43:05;100736.19;;;14.20
19568;BMP280;9930;49.240;8.548;2023-04-16T06:45:31;100737.03;;;14.21
19568;BMP280;9930;49.240;8.548;2023-04-16T06:48:00;100729.25;;;14.18
19568;BMP280;9930;49.240;8.548;2023-04-16T06:50:28;100737.97;;;14.23
19568;BMP280;9930;49.240;8.548;2023-04-16T06:53:01;100752.47;;;14.22
19568;BMP280;9930;49.240;8.548;2023-04-16T06:55:28;100737.69;;;14.14
19568;BMP280;9930;49.240;8.548;2023-04-16T06:57:58;100739.41;;;14.13
19568;BMP280;9930;49.240;8.548;2023-04-16T07:00:24;100744.44;;;14.10
19568;BMP280;9930;49.240;8.548;2023-04-16T07:02:52;100744.41;;;14.09
19568;BMP280;9930;49.240;8.548;2023-04-16T07:05:18;100760.75;;;14.12
19568;BMP280;9930;49.240;8.548;2023-04-16T07:07:43;100765.03;;;14.13
19568;BMP280;9930;49.240;8.548;2023-04-16T07:10:09;100762.44;;;14.12
19568;BMP280;9930;49.240;8.548;2023-04-16T07:12:35;100757.25;;;14.10
19568;BMP280;9930;49.240;8.548;2023-04-16T07:15:04;100765.19;;;14.18
19568;BMP280;9930;49.240;8.548;2023-04-16T07:17:33;100761.00;;;14.21
19568;BMP280;9930;49.240;8.548;2023-04-16T07:19:58;100771.28;;;14.21
19568;BMP280;9930;49.240;8.548;2023-04-16T07:22:30;100756.66;;;14.19
19568;BMP280;9930;49.240;8.548;2023-04-16T07:25:01;100763.53;;;14.20
19568;BMP280;9930;49.240;8.548;2023-04-16T07:27:34;100741.13;;;14.14
19568;BMP280;9930;49.240;8.548;2023-04-16T07:30:00;100749.75;;;14.16
19568;BMP280;9930;49.240;8.548;2023-04-16T07:32:30;100761.13;;;14.26
19568;BMP280;9930;49.240;8.548;2023-04-16T07:34:58;100763.75;;;14.27
19568;BMP280;9930;49.240;8.548;2023-04-16T07:37:23;100765.53;;;14.30
19568;BMP280;9930;49.240;8.548;2023-04-16T07:39:51;100770.00;;;14.37
19568;BMP280;9930;49.240;8.548;2023-04-16T07:42:17;100760.47;;;14.33
19568;BMP280;9930;49.240;8.548;2023-04-16T07:44:43;100766.78;;;14.43
19568;BMP280;9930;49.240;8.548;2023-04-16T07:47:09;100760.66;;;14.39
19568;BMP280;9930;49.240;8.548;2023-04-16T07:49:37;100776.28;;;14.47
19568;BMP280;9930;49.240;8.548;2023-04-16T07:52:05;100778.84;;;14.47
19568;BMP280;9930;49.240;8.548;2023-04-16T07:54:31;100770.16;;;14.42
19568;BMP280;9930;49.240;8.548;2023-04-16T07:56:58;100768.38;;;14.41
19568;BMP280;9930;49.240;8.548;2023-04-16T07:59:27;100769.25;;;14.41
19568;BMP280;9930;49.240;8.548;2023-04-16T08:01:52;100770.34;;;14.48
19568;BMP280;9930;49.240;8.548;2023-04-16T08:04:21;100786.84;;;14.57
19568;BMP280;9930;49.240;8.548;2023-04-16T08:06:50;100776.41;;;14.51
19568;BMP280;9930;49.240;8.548;2023-04-16T08:09:18;100778.97;;;14.51
19568;BMP280;9930;49.240;8.548;2023-04-16T08:11:46;100776.25;;;14.45
19568;BMP280;9930;49.240;8.548;2023-04-16T08:14:16;100782.34;;;14.49
19568;BMP280;9930;49.240;8.548;2023-04-16T08:16:41;100783.28;;;14.52
19568;BMP280;9930;49.240;8.548;2023-04-16T08:19:07;100798.06;;;14.61
19568;BMP280;9930;49.240;8.548;2023-04-16T08:21:35;100785.19;;;14.60
19568;BMP280;9930;49.240;8.548;2023-04-16T08:24:01;100793.97;;;14.68
19568;BMP280;9930;49.240;8.548;2023-04-16T08:26:29;100801.06;;;14.76
19568;BMP280;9930;49.240;8.548;2023-04-16T08:28:54;100799.28;;;14.74
19568;BMP280;9930;49.240;8.548;2023-04-16T08:31:23;100814.09;;;14.84
19568;BMP280;9930;49.240;8.548;2023-04-16T08:33:51;100810.63;;;14.82
19568;BMP280;9930;49.240;8.548;2023-04-16T08:36:17;100813.16;;;14.80
19568;BMP280;9930;49.240;8.548;2023-04-16T08:38:45;100809.59;;;14.75
19568;BMP280;9930;49.240;8.548;2023-04-16T08:41:12;100809.63;;;14.77
19568;BMP280;9930;49.240;8.548;2023-04-16T08:43:44;100821.81;;;14.84
19568;BMP280;9930;49.240;8.548;2023-04-16T08:46:16;100818.31;;;14.82
19568;BMP280;9930;49.240;8.548;2023-04-16T08:48:47;100806.09;;;14.73
19568;BMP280;9930;49.240;8.548;2023-04-16T08:51:18;100819.81;;;14.74
19568;BMP280;9930;49.240;8.548;2023-04-16T08:53:53;100823.28;;;14.76
19568;BMP280;9930;49.240;8.548;2023-04-16T08:56:24;100813.59;;;14.66
19568;BMP280;9930;49.240;8.548;2023-04-16T08:58:53;100821.34;;;14.67
19568;BMP280;9930;49.240;8.548;2023-04-16T09:01:23;100825.69;;;14.70
19568;BMP280;9930;49.240;8.548;2023-04-16T09:03:50;100817.88;;;14.65
19568;BMP280;9930;49.240;8.548;2023-04-16T09:06:20;100830.13;;;14.75
19568;BMP280;9930;49.240;8.548;2023-04-16T09:08:52;100837.03;;;14.78
19568;BMP280;9930;49.240;8.548;2023-04-16T09:11:18;100822.38;;;14.74
19568;BMP280;9930;49.240;8.548;2023-04-16T09:13:45;100820.69;;;14.74
19568;BMP280;9930;49.240;8.548;2023-04-16T09:16:14;100824.00;;;14.70
19568;BMP280;9930;49.240;8.548;2023-04-16T09:18:42;100846.44;;;14.77
19568;BMP280;9930;49.240;8.548;2023-04-16T09:21:09;100841.22;;;14.74
19568;BMP280;9930;49.240;8.548;2023-04-16T09:23:37;100842.84;;;14.71
19568;BMP280;9930;49.240;8.548;2023-04-16T09:26:04;100831.69;;;14.70
19568;BMP280;9930;49.240;8.548;2023-04-16T09:28:44;100848.09;;;14.75
19568;BMP280;9930;49.240;8.548;2023-04-16T09:31:17;100847.16;;;14.72
19568;BMP280;9930;49.240;8.548;2023-04-16T09:34:08;100842.72;;;14.66
19568;BMP280;9930;49.240;8.548;2023-04-16T09:36:36;100860.00;;;14.72
19568;BMP280;9930;49.240;8.548;2023-04-16T09:39:02;100834.94;;;14.63
19568;BMP280;9930;49.240;8.548;2023-04-16T09:41:35;100860.00;;;14.72
19568;BMP280;9930;49.240;8.548;2023-04-16T09:44:06;100852.19;;;14.69
19568;BMP280;9930;49.240;8.548;2023-04-16T09:46:40;100844.38;;;14.64
19568;BMP280;9930;49.240;8.548;2023-04-16T09:49:12;100843.53;;;14.65
19568;BMP280;9930;49.240;8.548;2023-04-16T09:51:47;100860.91;;;14.74
19568;BMP280;9930;49.240;8.548;2023-04-16T09:54:16;100866.03;;;14.74
19568;BMP280;9930;49.240;8.548;2023-04-16T09:56:45;100868.59;;;14.74
19568;BMP280;9930;49.240;8.548;2023-04-16T09:59:26;100881.41;;;14.72
19568;BMP280;9930;49.240;8.548;2023-04-16T10:02:09;100869.97;;;14.61
19568;BMP280;9930;49.240;8.548;2023-04-16T10:04:51;100882.00;;;14.64
19568;BMP280;9930;49.240;8.548;2023-04-16T10:07:20;100868.03;;;14.54
19568;BMP280;9930;49.240;8.548;2023-04-16T10:09:47;100850.69;;;14.45
19568;BMP280;9930;49.240;8.548;2023-04-16T10:12:19;100874.88;;;14.53
19568;BMP280;9930;49.240;8.548;2023-04-16T10:14:45;100885.31;;;14.60
19568;BMP280;9930;49.240;8.548;2023-04-16T10:17:15;100887.06;;;14.61
19568;BMP280;9930;49.240;8.548;2023-04-16T10:19:41;100880.84;;;14.52
19568;BMP280;9930;49.240;8.548;2023-04-16T10:22:10;100892.28;;;14.64
19568;BMP280;9930;49.240;8.548;2023-04-16T10:24:36;100894.75;;;14.61
19568;BMP280;9930;49.240;8.548;2023-04-16T10:27:01;100879.03;;;14.50
19568;BMP280;9930;49.240;8.548;2023-04-16T10:29:32;100883.34;;;14.51
19568;BMP280;9930;49.240;8.548;2023-04-16T10:32:01;100900.66;;;14.58
19568;BMP280;9930;49.240;8.548;2023-04-16T10:34:30;100891.28;;;14.58
19568;BMP280;9930;49.240;8.548;2023-04-16T10:36:59;100892.94;;;14.56
19568;BMP280;9930;49.240;8.548;2023-04-16T10:39:27;100892.16;;;14.59
19568;BMP280;9930;49.240;8.548;2023-04-16T10:42:10;100899.16;;;14.65
19568;BMP280;9930;49.240;8.548;2023-04-16T10:44:38;100889.53;;;14.57
19568;BMP280;9930;49.240;8.548;2023-04-16T10:47:15;100889.56;;;14.59
19568;BMP280;9930;49.240;8.548;2023-04-16T10:49:42;100885.22;;;14.56
19568;BMP280;9930;49.240;8.548;2023-04-16T10:52:15;100897.47;;;14.65
19568;BMP280;9930;49.240;8.548;2023-04-16T10:54:50;100898.34;;;14.66
19568;BMP280;9930;49.240;8.548;2023-04-16T10:57:18;100892.16;;;14.59
19568;BMP280;9930;49.240;8.548;2023-04-16T10:59:47;100886.94;;;14.56
19568;BMP280;9930;49.240;8.548;2023-04-16T11:02:15;100893.66;;;14.52
19568;BMP280;9930;49.240;8.548;2023-04-16T11:04:47;100888.34;;;14.46
19568;BMP280;9930;49.240;8.548;2023-04-16T11:07:20;100897.06;;;14.51
19568;BMP280;9930;49.240;8.548;2023-04-16T11:09:55;100895.31;;;14.50
19568;BMP280;9930;49.240;8.548;2023-04-16T11:12:40;100900.38;;;14.47
19568;BMP280;9930;49.240;8.548;2023-04-16T11:15:14;100896.78;;;14.42
19568;BMP280;9930;49.240;8.548;2023-04-16T11:17:44;100907.19;;;14.47
19568;BMP280;9930;49.240;8.548;2023-04-16T11:22:57;100906.50;;;14.52
19568;BMP280;9930;49.240;8.548;2023-04-16T11:25:28;100902.28;;;14.54
19568;BMP280;9930;49.240;8.548;2023-04-16T11:28:03;100899.81;;;14.57
19568;BMP280;9930;49.240;8.548;2023-04-16T11:30:32;100891.13;;;14.54
19568;BMP280;9930;49.240;8.548;2023-04-16T11:33:07;100886.00;;;14.54
19568;BMP280;9930;49.240;8.548;2023-04-16T11:35:32;100896.41;;;14.58
19568;BMP280;9930;49.240;8.548;2023-04-16T11:37:58;100902.53;;;14.64
19568;BMP280;9930;49.240;8.548;2023-04-16T11:40:28;100899.16;;;14.65
19568;BMP280;9930;49.240;8.548;2023-04-16T11:43:12;100902.63;;;14.67
19568;BMP280;9930;49.240;8.548;2023-04-16T11:45:38;100898.34;;;14.66
19568;BMP280;9930;49.240;8.548;2023-04-16T11:48:06;100888.78;;;14.62
19568;BMP280;9930;49.240;8.548;2023-04-16T11:50:34;100897.59;;;14.70
19568;BMP280;9930;49.240;8.548;2023-04-16T11:53:05;100888.00;;;14.64
19568;BMP280;9930;49.240;8.548;2023-04-16T11:55:31;100896.75;;;14.71
19568;BMP280;9930;49.240;8.548;2023-04-16T11:58:12;100898.38;;;14.67
19568;BMP280;9930;49.240;8.548;2023-04-16T12:00:40;100898.47;;;14.70
19568;BMP280;9930;49.240;8.548;2023-04-16T12:03:10;100895.94;;;14.72
19568;BMP280;9930;49.240;8.548;2023-04-16T12:05:39;100896.03;;;14.75
19568;BMP280;9930;49.240;8.548;2023-04-16T12:08:08;100890.72;;;14.69
19568;BMP280;9930;49.240;8.548;2023-04-16T12:10:52;100895.06;;;14.71
19568;BMP280;9930;49.240;8.548;2023-04-16T12:13:18;100883.88;;;14.69
19568;BMP280;9930;49.240;8.548;2023-04-16T12:15:56;100892.59;;;14.74
19568;BMP280;9930;49.240;8.548;2023-04-16T12:18:25;100894.38;;;14.77
19568;BMP280;9930;49.240;8.548;2023-04-16T12:20:54;100895.38;;;14.82
19568;BMP280;9930;49.240;8.548;2023-04-16T12:23:32;100887.56;;;14.79
19568;BMP280;9930;49.240;8.548;2023-04-16T12:26:10;100905.06;;;14.92
19568;BMP280;9930;49.240;8.548;2023-04-16T12:28:38;100886.91;;;14.86
19568;BMP280;9930;49.240;8.548;2023-04-16T12:31:05;100902.59;;;14.95
19568;BMP280;9930;49.240;8.548;2023-04-16T12:33:30;100890.56;;;14.94
19568;BMP280;9930;49.240;8.548;2023-04-16T12:35:59;100900.28;;;15.04
19568;BMP280;9930;49.240;8.548;2023-04-16T12:38:27;100888.13;;;14.99
19568;BMP280;9930;49.240;8.548;2023-04-16T12:40:53;100895.03;;;15.01
19568;BMP280;9930;49.240;8.548;2023-04-16T12:43:23;100906.34;;;15.08
19568;BMP280;9930;49.240;8.548;2023-04-16T12:45:49;100914.94;;;15.08
19568;BMP280;9930;49.240;8.548;2023-04-16T12:48:14;100915.75;;;15.07
19568;BMP280;9930;49.240;8.548;2023-04-16T12:50:44;100905.50;;;15.07
19568;BMP280;9930;49.240;8.548;2023-04-16T12:53:13;100899.34;;;15.02
19568;BMP280;9930;49.240;8.548;2023-04-16T12:55:41;100909.00;;;15.11
19568;BMP280;9930;49.240;8.548;2023-04-16T12:58:07;100895.09;;;15.03
19568;BMP280;9930;49.240;8.548;2023-04-16T13:00:33;100910.72;;;15.10
19568;BMP280;9930;49.240;8.548;2023-04-16T13:03:01;100897.78;;;15.07
19568;BMP280;9930;49.240;8.548;2023-04-16T13:05:27;100905.69;;;15.15
19568;BMP280;9930;49.240;8.548;2023-04-16T13:07:59;100905.75;;;15.16
19568;BMP280;9930;49.240;8.548;2023-04-16T13:10:25;100910.06;;;15.17
19568;BMP280;9930;49.240;8.548;2023-04-16T13:12:53;100911.84;;;15.20
19568;BMP280;9930;49.240;8.548;2023-04-16T13:15:19;100908.38;;;15.19
19568;BMP280;9930;49.240;8.548;2023-04-16T13:17:49;100896.25;;;15.14
19568;BMP280;9930;49.240;8.548;2023-04-16T13:20:17;100913.63;;;15.22
19568;BMP280;9930;49.240;8.548;2023-04-16T13:22:48;100907.53;;;15.19
19568;BMP280;9930;49.240;8.548;2023-04-16T13:25:14;100917.09;;;15.25
19568;BMP280;9930;49.240;8.548;2023-04-16T13:27:42;100914.53;;;15.25
19568;BMP280;9930;49.240;8.548;2023-04-16T13:30:08;100911.03;;;15.22
19568;BMP280;9930;49.240;8.548;2023-04-16T13:32:34;100891.06;;;15.12
19568;BMP280;9930;49.240;8.548;2023-04-16T13:34:59;100895.50;;;15.18
19568;BMP280;9930;49.240;8.548;2023-04-16T13:37:26;100912.81;;;15.25
19568;BMP280;9930;49.240;8.548;2023-04-16T13:39:52;100898.22;;;15.24
19568;BMP280;9930;49.240;8.548;2023-04-16T13:42:18;100910.28;;;15.27
19568;BMP280;9930;49.240;8.548;2023-04-16T13:44:44;100914.69;;;15.31
19568;BMP280;9930;49.240;8.548;2023-04-16T13:47:16;100906.91;;;15.28
19568;BMP280;9930;49.240;8.548;2023-04-16T13:49:44;100899.16;;;15.26
19568;BMP280;9930;49.240;8.548;2023-04-16T13:52:14;100910.56;;;15.37
19568;BMP280;9930;49.240;8.548;2023-04-16T13:54:40;100901.03;;;15.33
19568;BMP280;9930;49.240;8.548;2023-04-16T13:57:07;100890.59;;;15.27
19568;BMP280;9930;49.240;8.548;2023-04-16T13:59:38;100909.78;;;15.40
19568;BMP280;9930;49.240;8.548;2023-04-16T14:02:03;100905.34;;;15.34
19568;BMP280;9930;49.240;8.548;2023-04-16T14:04:32;100913.19;;;15.39
19568;BMP280;9930;49.240;8.548;2023-04-16T14:06:59;100901.03;;;15.33
19568;BMP280;9930;49.240;8.548;2023-04-16T14:09:26;100901.03;;;15.33
19568;BMP280;9930;49.240;8.548;2023-04-16T14:11:55;100911.53;;;15.41
19568;BMP280;9930;49.240;8.548;2023-04-16T14:14:22;100912.34;;;15.40
19568;BMP280;9930;49.240;8.548;2023-04-16T14:16:50;100904.47;;;15.34
19568;BMP280;9930;49.240;8.548;2023-04-16T14:19:18;100914.81;;;15.35